Time;durP1;ratioP1;P1;durP2;ratioP2;P2;SDS_P1;SDS_P2;PMS_P1;PMS_P2;Temp;Humidity;BMP_temperature;BMP_pressure;BME280_temperature;BME280_humidity;BME280_pressure;Samples;Min_cycle;Max_cycle;Signal;HPM_P1;HPM_P2
2021/05/02 00:01:05;;;;;;;;;;;19.60;50.60;;;;;;5045045;28;19917;-66
2021/05/02 00:03:30;;;;;;;;;;;19.70;50.60;;;;;;5039123;28;19972;-67
2021/05/02 00:05:56;;;;;;;;;;;19.60;50.60;;;;;;5047901;28;20050;-63
2021/05/02 00:08:21;;;;;;;;;;;19.60;50.60;;;;;;5053162;28;20551;-66
2021/05/02 00:10:47;;;;;;;;;;;19.70;50.60;;;;;;5049031;28;19917;-66
2021/05/02 00:13:12;;;;;;;;;;;19.60;50.60;;;;;;5045790;28;19935;-66
2021/05/02 00:15:37;;;;;;;;;;;19.60;50.60;;;;;;5050576;28;20418;-66
2021/05/02 00:18:03;;;;;;;;;;;19.60;50.60;;;;;;5048572;28;19925;-66
2021/05/02 00:20:28;;;;;;;;;;;19.60;50.60;;;;;;5047589;28;19996;-66
2021/05/02 00:22:55;;;;;;;;;;;19.60;50.70;;;;;;5054795;28;20469;-65
2021/05/02 00:25:24;;;;;;;;;;;19.60;50.60;;;;;;5042694;28;19931;-66
2021/05/02 00:27:50;;;;;;;;;;;19.60;50.60;;;;;;5043824;28;19959;-65
2021/05/02 00:30:16;;;;;;;;;;;19.60;50.70;;;;;;5043826;28;19949;-66
2021/05/02 00:32:47;;;;;;;;;;;19.60;50.60;;;;;;5045272;28;20008;-66
2021/05/02 00:35:12;;;;;;;;;;;19.60;50.60;;;;;;5049996;28;20092;-66
2021/05/02 00:37:38;;;;;;;;;;;19.60;50.70;;;;;;5069427;28;20375;-66
2021/05/02 00:40:03;;;;;;;;;;;19.60;50.60;;;;;;5068181;28;19982;-66
2021/05/02 00:42:29;;;;;;;;;;;19.60;50.60;;;;;;5049645;28;19924;-66
2021/05/02 00:45:02;;;;;;;;;;;19.60;50.50;;;;;;5062025;28;19974;-65
2021/05/02 00:47:35;;;;;;;;;;;19.60;50.60;;;;;;5058046;28;19916;-65
2021/05/02 00:50:05;;;;;;;;;;;19.60;50.60;;;;;;5061586;28;19917;-65
2021/05/02 00:52:46;;;;;;;;;;;19.60;50.60;;;;;;5061914;28;19921;-66
2021/05/02 00:55:13;;;;;;;;;;;19.60;50.60;;;;;;5067635;28;19927;-66
2021/05/02 00:57:51;;;;;;;;;;;19.60;50.60;;;;;;5062351;28;19924;-66
2021/05/02 01:00:16;;;;;;;;;;;19.60;50.50;;;;;;5061453;28;19920;-66
2021/05/02 01:02:42;;;;;;;;;;;19.60;50.60;;;;;;5062800;28;20359;-65
2021/05/02 01:05:11;;;;;;;;;;;19.50;50.40;;;;;;5043397;28;19920;-66
2021/05/02 01:07:37;;;;;;;;;;;19.50;50.40;;;;;;5061411;28;19917;-64
2021/05/02 01:10:04;;;;;;;;;;;19.60;50.50;;;;;;5062204;28;20459;-66
2021/05/02 01:12:29;;;;;;;;;;;19.50;50.40;;;;;;5061491;28;19924;-66
2021/05/02 01:14:56;;;;;;;;;;;19.60;50.50;;;;;;5047930;28;20037;-66
2021/05/02 01:17:21;;;;;;;;;;;19.50;50.40;;;;;;5047595;28;19920;-65
2021/05/02 01:19:47;;;;;;;;;;;19.50;50.40;;;;;;5065029;28;19923;-65
2021/05/02 01:22:13;;;;;;;;;;;19.50;50.40;;;;;;5065096;28;19927;-66
2021/05/02 01:24:40;;;;;;;;;;;19.50;50.30;;;;;;5069461;28;19929;-66
2021/05/02 01:27:05;;;;;;;;;;;19.50;50.30;;;;;;5070503;28;19925;-66
2021/05/02 01:29:31;;;;;;;;;;;19.50;50.40;;;;;;5066116;28;19977;-66
2021/05/02 01:31:56;;;;;;;;;;;19.50;50.40;;;;;;5064794;28;19924;-66
2021/05/02 01:34:21;;;;;;;;;;;19.50;50.40;;;;;;5036977;28;20300;-65
2021/05/02 01:36:47;;;;;;;;;;;19.50;50.40;;;;;;5064755;28;19932;-66
2021/05/02 01:39:13;;;;;;;;;;;19.50;50.40;;;;;;5065575;28;19928;-65
2021/05/02 01:41:38;;;;;;;;;;;19.50;50.40;;;;;;5065070;28;19916;-65
2021/05/02 01:44:04;;;;;;;;;;;19.50;50.40;;;;;;5067268;28;20028;-66
2021/05/02 01:46:33;;;;;;;;;;;19.50;50.40;;;;;;5047561;28;19920;-66
2021/05/02 01:48:59;;;;;;;;;;;19.50;50.30;;;;;;5060095;28;19931;-65
2021/05/02 01:51:24;;;;;;;;;;;19.50;50.30;;;;;;5064842;28;19916;-65
2021/05/02 01:53:50;;;;;;;;;;;19.50;50.40;;;;;;5035818;28;19927;-65
2021/05/02 01:56:15;;;;;;;;;;;19.50;50.40;;;;;;5058913;28;19917;-65
2021/05/02 01:58:41;;;;;;;;;;;19.50;50.40;;;;;;5064942;28;20478;-65
2021/05/02 02:01:07;;;;;;;;;;;19.50;50.40;;;;;;5047243;28;19928;-65
2021/05/02 02:03:33;;;;;;;;;;;19.50;50.40;;;;;;5064096;28;19925;-66
2021/05/02 02:05:58;;;;;;;;;;;19.50;50.40;;;;;;5067780;28;19921;-66
2021/05/02 02:08:24;;;;;;;;;;;19.50;50.40;;;;;;5045862;28;19950;-66
2021/05/02 02:10:50;;;;;;;;;;;19.50;50.40;;;;;;5064688;28;20426;-65
2021/05/02 02:13:15;;;;;;;;;;;19.50;50.40;;;;;;5046893;28;19943;-65
2021/05/02 02:15:41;;;;;;;;;;;19.50;50.40;;;;;;5063540;28;20407;-65
2021/05/02 02:18:07;;;;;;;;;;;19.50;50.40;;;;;;5064297;28;20367;-66
2021/05/02 02:20:36;;;;;;;;;;;19.50;50.40;;;;;;5063994;28;19940;-65
2021/05/02 02:23:06;;;;;;;;;;;19.50;50.40;;;;;;5065172;28;20000;-65
2021/05/02 02:25:32;;;;;;;;;;;19.50;50.40;;;;;;5064690;28;19917;-66
2021/05/02 02:27:57;;;;;;;;;;;19.50;50.40;;;;;;5039129;28;19924;-65
2021/05/02 02:30:25;;;;;;;;;;;19.40;50.40;;;;;;5066212;28;19916;-65
2021/05/02 02:32:51;;;;;;;;;;;19.40;50.40;;;;;;5067133;28;19920;-66
2021/05/02 02:35:17;;;;;;;;;;;19.50;50.40;;;;;;5049542;28;19924;-65
2021/05/02 02:37:43;;;;;;;;;;;19.50;50.40;;;;;;5065272;28;20441;-65
2021/05/02 02:40:08;;;;;;;;;;;19.40;50.40;;;;;;5068891;28;20386;-67
2021/05/02 02:42:34;;;;;;;;;;;19.40;50.40;;;;;;5067169;28;19924;-67
2021/05/02 02:45:02;;;;;;;;;;;19.40;50.40;;;;;;5070673;28;19936;-66
2021/05/02 02:47:35;;;;;;;;;;;19.40;50.40;;;;;;5063914;28;19917;-66
2021/05/02 02:50:01;;;;;;;;;;;19.40;50.40;;;;;;5068925;28;19917;-66
2021/05/02 02:52:27;;;;;;;;;;;19.40;50.40;;;;;;5075398;28;19920;-66
2021/05/02 02:55:02;;;;;;;;;;;19.40;50.40;;;;;;5073748;28;19916;-65
2021/05/02 02:57:27;;;;;;;;;;;19.40;50.40;;;;;;5071909;28;19932;-66
2021/05/02 02:59:54;;;;;;;;;;;19.40;50.50;;;;;;5067805;28;20342;-65
2021/05/02 03:02:20;;;;;;;;;;;19.40;50.50;;;;;;5052879;28;19999;-66
2021/05/02 03:04:45;;;;;;;;;;;19.40;50.50;;;;;;5068169;28;20006;-65
2021/05/02 03:07:10;;;;;;;;;;;19.40;50.40;;;;;;5055999;28;19942;-65
2021/05/02 03:09:36;;;;;;;;;;;19.40;50.40;;;;;;5047000;28;19925;-65
2021/05/02 03:12:02;;;;;;;;;;;19.40;50.40;;;;;;5050477;28;19920;-66
2021/05/02 03:14:27;;;;;;;;;;;19.40;50.40;;;;;;5067449;28;19930;-66
2021/05/02 03:16:52;;;;;;;;;;;19.40;50.40;;;;;;5065586;28;19924;-66
2021/05/02 03:19:25;;;;;;;;;;;19.40;50.40;;;;;;5045984;28;19917;-66
2021/05/02 03:21:52;;;;;;;;;;;19.40;50.40;;;;;;5072014;28;19916;-65
2021/05/02 03:24:23;;;;;;;;;;;19.40;50.50;;;;;;5065419;28;19977;-66
2021/05/02 03:26:48;;;;;;;;;;;19.40;50.50;;;;;;5064481;28;20082;-66
2021/05/02 03:29:14;;;;;;;;;;;19.40;50.40;;;;;;5047955;28;20392;-65
2021/05/02 03:31:39;;;;;;;;;;;19.40;50.40;;;;;;5041882;28;19966;-66
2021/05/02 03:34:05;;;;;;;;;;;19.40;50.40;;;;;;5047418;28;19924;-66
2021/05/02 03:36:34;;;;;;;;;;;19.40;50.40;;;;;;5063097;28;19928;-65
2021/05/02 03:39:00;;;;;;;;;;;19.40;50.40;;;;;;5050202;28;19947;-66
2021/05/02 03:41:25;;;;;;;;;;;19.40;50.50;;;;;;5043944;28;20350;-65
2021/05/02 03:43:51;;;;;;;;;;;19.40;50.40;;;;;;5062821;28;19931;-65
2021/05/02 03:46:25;;;;;;;;;;;19.30;50.40;;;;;;5061115;28;19920;-66
2021/05/02 03:48:51;;;;;;;;;;;19.30;50.40;;;;;;5062973;28;19923;-66
2021/05/02 03:51:17;;;;;;;;;;;19.40;50.50;;;;;;5064412;28;19924;-64
2021/05/02 03:53:42;;;;;;;;;;;19.30;50.40;;;;;;5043432;28;20216;-65
2021/05/02 03:56:08;;;;;;;;;;;19.30;50.40;;;;;;5045314;28;19917;-65
2021/05/02 03:58:33;;;;;;;;;;;19.30;50.40;;;;;;5062429;28;19970;-66
2021/05/02 04:00:59;;;;;;;;;;;19.30;50.40;;;;;;5062706;28;19939;-66
2021/05/02 04:03:24;;;;;;;;;;;19.30;50.40;;;;;;5062050;28;19916;-66
2021/05/02 04:05:49;;;;;;;;;;;19.30;50.40;;;;;;5062877;28;19970;-66
2021/05/02 04:08:15;;;;;;;;;;;19.30;50.40;;;;;;5064606;28;20594;-66
2021/05/02 04:10:40;;;;;;;;;;;19.30;50.40;;;;;;5062353;28;19986;-66
2021/05/02 04:13:06;;;;;;;;;;;19.30;50.40;;;;;;5063350;28;19928;-66
2021/05/02 04:15:31;;;;;;;;;;;19.30;50.40;;;;;;5063217;28;19917;-65
2021/05/02 04:17:57;;;;;;;;;;;19.30;50.40;;;;;;5062511;28;20525;-65
2021/05/02 04:20:22;;;;;;;;;;;19.30;50.40;;;;;;5062472;28;19923;-65
2021/05/02 04:22:48;;;;;;;;;;;19.30;50.40;;;;;;5062437;28;19924;-66
2021/05/02 04:25:13;;;;;;;;;;;19.30;50.40;;;;;;5062913;28;19974;-66
2021/05/02 04:27:38;;;;;;;;;;;19.30;50.50;;;;;;5069886;28;20514;-65
2021/05/02 04:30:04;;;;;;;;;;;19.30;50.40;;;;;;5068335;28;19916;-65
2021/05/02 04:32:30;;;;;;;;;;;19.30;50.40;;;;;;5062525;28;19921;-65
2021/05/02 04:34:55;;;;;;;;;;;19.30;50.40;;;;;;5069277;28;19966;-65
2021/05/02 04:37:20;;;;;;;;;;;19.30;50.50;;;;;;5064947;28;19917;-66
2021/05/02 04:39:46;;;;;;;;;;;19.30;50.50;;;;;;5053601;28;19920;-65
2021/05/02 04:42:11;;;;;;;;;;;19.30;50.60;;;;;;5066529;28;19920;-65
2021/05/02 04:44:37;;;;;;;;;;;19.30;50.50;;;;;;5055437;28;19982;-66
2021/05/02 04:47:03;;;;;;;;;;;19.30;50.50;;;;;;5057903;28;19924;-65
2021/05/02 04:49:28;;;;;;;;;;;19.30;50.50;;;;;;5060955;28;20188;-65
2021/05/02 04:51:54;;;;;;;;;;;19.30;50.50;;;;;;5063919;28;19966;-65
2021/05/02 04:54:20;;;;;;;;;;;19.30;50.40;;;;;;5066710;28;19924;-65
2021/05/02 04:56:46;;;;;;;;;;;19.30;50.50;;;;;;5071214;28;19977;-66
2021/05/02 04:59:11;;;;;;;;;;;19.30;50.50;;;;;;5053102;28;20459;-66
2021/05/02 05:01:37;;;;;;;;;;;19.30;50.50;;;;;;5072476;28;19924;-66
2021/05/02 05:04:02;;;;;;;;;;;19.30;50.50;;;;;;5060771;28;19917;-66
2021/05/02 05:06:28;;;;;;;;;;;19.30;50.50;;;;;;5062183;28;19916;-66
2021/05/02 05:08:53;;;;;;;;;;;19.30;50.50;;;;;;5067890;28;20563;-66
2021/05/02 05:11:22;;;;;;;;;;;19.20;50.40;;;;;;5066825;28;19916;-65
2021/05/02 05:13:47;;;;;;;;;;;19.20;50.40;;;;;;5059080;28;20476;-66
2021/05/02 05:16:13;;;;;;;;;;;19.30;50.50;;;;;;5077219;28;20033;-65
2021/05/02 05:18:38;;;;;;;;;;;19.20;50.40;;;;;;5069662;28;19934;-66
2021/05/02 05:21:04;;;;;;;;;;;19.20;50.40;;;;;;5074015;28;19916;-66
2021/05/02 05:23:29;;;;;;;;;;;19.20;50.40;;;;;;5073501;28;19917;-66
2021/05/02 05:25:55;;;;;;;;;;;19.30;50.40;;;;;;5072859;28;19928;-66
2021/05/02 05:28:23;;;;;;;;;;;19.30;50.40;;;;;;5068437;28;19966;-65
2021/05/02 05:30:49;;;;;;;;;;;19.30;50.40;;;;;;5065321;28;20028;-66
2021/05/02 05:33:14;;;;;;;;;;;19.20;50.40;;;;;;5065786;28;19944;-66
2021/05/02 05:35:39;;;;;;;;;;;19.20;50.40;;;;;;5062340;28;19921;-65
2021/05/02 05:38:05;;;;;;;;;;;19.20;50.30;;;;;;5068956;28;19916;-66
2021/05/02 05:40:30;;;;;;;;;;;19.20;50.40;;;;;;5053207;28;20446;-65
2021/05/02 05:42:56;;;;;;;;;;;19.20;51.00;;;;;;5070361;28;19916;-66
2021/05/02 05:45:21;;;;;;;;;;;19.20;50.30;;;;;;5047002;28;19916;-66
2021/05/02 05:47:50;;;;;;;;;;;19.20;50.30;;;;;;5068040;28;19923;-66
2021/05/02 05:50:16;;;;;;;;;;;19.20;50.40;;;;;;5066514;28;20007;-66
2021/05/02 05:52:41;;;;;;;;;;;19.20;50.30;;;;;;5064362;28;20016;-65
2021/05/02 05:55:07;;;;;;;;;;;19.20;50.40;;;;;;5064357;28;20604;-66
2021/05/02 05:57:33;;;;;;;;;;;19.20;50.40;;;;;;5063878;28;19999;-66
2021/05/02 05:59:58;;;;;;;;;;;19.20;50.40;;;;;;5078999;28;19962;-66
2021/05/02 06:02:23;;;;;;;;;;;19.20;50.40;;;;;;5063719;28;19924;-66
2021/05/02 06:04:49;;;;;;;;;;;19.20;50.40;;;;;;5069646;28;20395;-66
2021/05/02 06:07:14;;;;;;;;;;;19.20;50.30;;;;;;5065068;28;19920;-65
2021/05/02 06:09:40;;;;;;;;;;;19.20;50.40;;;;;;5063527;28;19920;-65
2021/05/02 06:12:05;;;;;;;;;;;19.20;50.40;;;;;;5065177;28;19920;-64
2021/05/02 06:14:31;;;;;;;;;;;19.20;50.40;;;;;;5071352;28;19920;-68
2021/05/02 06:16:56;;;;;;;;;;;19.20;50.40;;;;;;5064172;28;19916;-66
2021/05/02 06:19:22;;;;;;;;;;;19.20;50.50;;;;;;5063516;28;19932;-66
2021/05/02 06:21:47;;;;;;;;;;;19.20;50.60;;;;;;5063772;28;19924;-64
2021/05/02 06:24:12;;;;;;;;;;;19.10;50.60;;;;;;5061125;28;19954;-66
2021/05/02 06:26:38;;;;;;;;;;;19.20;50.80;;;;;;5064332;28;20002;-65
2021/05/02 06:29:04;;;;;;;;;;;19.20;51.50;;;;;;5065097;28;19920;-65
2021/05/02 06:31:29;;;;;;;;;;;19.10;50.80;;;;;;5062465;28;20530;-65
2021/05/02 06:33:55;;;;;;;;;;;19.20;50.90;;;;;;5073722;28;19959;-65
2021/05/02 06:36:20;;;;;;;;;;;19.20;50.90;;;;;;5068913;28;19924;-65
2021/05/02 06:38:46;;;;;;;;;;;19.10;50.90;;;;;;5063116;28;20436;-66
2021/05/02 06:41:11;;;;;;;;;;;19.10;50.90;;;;;;5060856;28;19939;-65
2021/05/02 06:43:37;;;;;;;;;;;19.20;51.10;;;;;;5066223;28;20391;-65
2021/05/02 06:46:02;;;;;;;;;;;19.20;51.10;;;;;;5064109;28;19927;-65
2021/05/02 06:48:28;;;;;;;;;;;19.10;51.00;;;;;;5046301;28;19924;-65
2021/05/02 06:50:53;;;;;;;;;;;19.10;51.00;;;;;;5061937;28;19973;-66
2021/05/02 06:53:18;;;;;;;;;;;19.10;51.10;;;;;;5065000;28;20280;-64
2021/05/02 06:55:44;;;;;;;;;;;19.10;51.10;;;;;;5069476;28;19920;-67
2021/05/02 06:58:10;;;;;;;;;;;19.10;51.20;;;;;;5064759;28;19925;-65
2021/05/02 07:00:37;;;;;;;;;;;19.10;51.20;;;;;;5075490;28;20434;-65
2021/05/02 07:03:02;;;;;;;;;;;19.10;51.30;;;;;;5055854;28;20303;-67
2021/05/02 07:05:28;;;;;;;;;;;19.10;51.30;;;;;;5043438;28;19917;-66
2021/05/02 07:07:54;;;;;;;;;;;19.10;51.40;;;;;;5065782;28;19920;-68
2021/05/02 07:10:19;;;;;;;;;;;19.10;51.50;;;;;;5067386;28;20199;-68
2021/05/02 07:12:45;;;;;;;;;;;19.10;52.10;;;;;;5056883;28;20050;-67
2021/05/02 07:15:10;;;;;;;;;;;19.10;52.30;;;;;;5063623;28;19982;-67
2021/05/02 07:17:36;;;;;;;;;;;19.00;52.50;;;;;;5048504;28;19927;-67
2021/05/02 07:20:01;;;;;;;;;;;19.00;52.60;;;;;;5050834;28;19926;-69
2021/05/02 07:22:28;;;;;;;;;;;19.00;52.60;;;;;;5063535;28;19916;-65
2021/05/02 07:24:54;;;;;;;;;;;19.00;52.60;;;;;;5063515;28;19977;-66
2021/05/02 07:27:19;;;;;;;;;;;19.00;52.50;;;;;;5068765;28;19924;-66
2021/05/02 07:29:45;;;;;;;;;;;19.00;52.40;;;;;;5064691;28;19943;-67
2021/05/02 07:32:10;;;;;;;;;;;19.00;52.30;;;;;;5065824;28;19916;-68
2021/05/02 07:34:36;;;;;;;;;;;19.00;52.20;;;;;;5064197;28;20398;-67
2021/05/02 07:37:01;;;;;;;;;;;19.00;52.20;;;;;;5055919;28;19960;-67
2021/05/02 07:39:27;;;;;;;;;;;19.00;52.10;;;;;;5044503;28;19925;-67
2021/05/02 07:41:53;;;;;;;;;;;19.00;52.00;;;;;;5063794;28;19978;-67
2021/05/02 07:44:19;;;;;;;;;;;19.00;52.00;;;;;;5045637;28;20379;-67
2021/05/02 07:46:44;;;;;;;;;;;19.00;51.90;;;;;;5062854;28;19960;-66
2021/05/02 07:49:10;;;;;;;;;;;19.00;51.80;;;;;;5062592;28;19935;-64
2021/05/02 07:51:35;;;;;;;;;;;19.00;51.80;;;;;;5061959;28;20379;-68
2021/05/02 07:54:01;;;;;;;;;;;19.00;51.70;;;;;;5062781;28;19986;-67
2021/05/02 07:56:26;;;;;;;;;;;19.00;51.70;;;;;;5063045;28;20402;-67
2021/05/02 07:58:52;;;;;;;;;;;19.00;51.60;;;;;;5046441;28;19916;-69
2021/05/02 08:01:17;;;;;;;;;;;19.00;51.50;;;;;;5062441;28;20552;-68
2021/05/02 08:03:43;;;;;;;;;;;19.00;51.40;;;;;;5063028;28;20065;-69
2021/05/02 08:06:08;;;;;;;;;;;19.00;51.30;;;;;;5062206;28;19928;-66
2021/05/02 08:08:34;;;;;;;;;;;19.00;51.30;;;;;;5062044;28;19922;-66
2021/05/02 08:10:59;;;;;;;;;;;19.00;51.30;;;;;;5062638;28;19924;-65
2021/05/02 08:13:25;;;;;;;;;;;19.00;51.40;;;;;;5055524;28;19925;-67
2021/05/02 08:15:50;;;;;;;;;;;19.00;51.80;;;;;;5062899;28;20655;-66
2021/05/02 08:18:16;;;;;;;;;;;19.00;52.30;;;;;;5062888;28;19974;-67
2021/05/02 08:20:41;;;;;;;;;;;19.00;52.60;;;;;;5061987;28;19924;-68
2021/05/02 08:23:07;;;;;;;;;;;19.00;52.80;;;;;;5062788;28;19921;-68
2021/05/02 08:25:32;;;;;;;;;;;19.00;52.70;;;;;;5050702;28;19924;-68
2021/05/02 08:27:58;;;;;;;;;;;19.00;52.60;;;;;;5066435;28;19917;-67
2021/05/02 08:30:23;;;;;;;;;;;19.00;52.50;;;;;;5066644;28;19940;-65
2021/05/02 08:32:49;;;;;;;;;;;19.00;52.30;;;;;;5067089;28;19999;-66
2021/05/02 08:35:14;;;;;;;;;;;19.10;52.30;;;;;;5065720;28;20014;-65
2021/05/02 08:37:40;;;;;;;;;;;19.00;52.20;;;;;;5066177;28;19924;-65
2021/05/02 08:40:05;;;;;;;;;;;19.00;52.00;;;;;;5069347;28;19925;-67
2021/05/02 08:42:31;;;;;;;;;;;19.10;52.00;;;;;;5047802;28;20030;-65
2021/05/02 08:44:56;;;;;;;;;;;19.10;52.20;;;;;;5065910;28;19923;-65
2021/05/02 08:47:22;;;;;;;;;;;19.10;52.30;;;;;;5048884;28;19942;-69
2021/05/02 08:49:47;;;;;;;;;;;19.10;52.20;;;;;;5065600;28;20395;-69
2021/05/02 08:52:13;;;;;;;;;;;19.10;52.00;;;;;;5066574;28;19925;-67
2021/05/02 08:54:38;;;;;;;;;;;19.10;51.70;;;;;;5071495;28;20437;-69
2021/05/02 08:57:04;;;;;;;;;;;19.10;51.50;;;;;;5053703;28;19917;-67
2021/05/02 08:59:29;;;;;;;;;;;19.10;51.40;;;;;;5062069;28;19932;-68
2021/05/02 09:01:55;;;;;;;;;;;19.10;51.40;;;;;;5073255;28;19954;-67
2021/05/02 09:04:21;;;;;;;;;;;19.10;51.60;;;;;;5066706;28;19947;-67
2021/05/02 09:06:46;;;;;;;;;;;19.10;51.70;;;;;;5069857;28;19955;-68
2021/05/02 09:09:12;;;;;;;;;;;19.10;51.70;;;;;;5065071;28;19989;-68
2021/05/02 09:11:41;;;;;;;;;;;19.10;52.10;;;;;;5073128;28;20394;-67
2021/05/02 09:14:09;;;;;;;;;;;19.00;52.30;;;;;;5068878;28;19930;-69
2021/05/02 09:16:50;;;;;;;;;;;19.00;53.30;;;;;;5033901;28;19916;-67
2021/05/02 09:19:16;;;;;;;;;;;18.90;53.10;;;;;;5072908;28;19920;-68
2021/05/02 09:21:42;;;;;;;;;;;18.90;53.50;;;;;;5066468;28;19916;-68
2021/05/02 09:24:24;;;;;;;;;;;18.90;53.70;;;;;;5065799;28;20391;-68
2021/05/02 09:27:08;;;;;;;;;;;18.90;53.60;;;;;;5047238;28;20003;-67
2021/05/02 09:29:34;;;;;;;;;;;18.90;53.50;;;;;;5061728;28;19917;-68
2021/05/02 09:32:00;;;;;;;;;;;18.90;53.50;;;;;;5049800;28;19938;-68
2021/05/02 09:34:25;;;;;;;;;;;18.90;53.70;;;;;;5063590;28;20438;-68
2021/05/02 09:36:51;;;;;;;;;;;18.90;53.80;;;;;;5065387;28;19925;-68
2021/05/02 09:39:33;;;;;;;;;;;18.90;53.60;;;;;;5065764;28;19924;-66
2021/05/02 09:42:03;;;;;;;;;;;18.90;53.50;;;;;;5052675;28;19916;-68
2021/05/02 09:44:38;;;;;;;;;;;19.00;53.60;;;;;;5057563;28;19917;-66
2021/05/02 09:47:22;;;;;;;;;;;19.00;53.50;;;;;;5060814;28;19924;-66
2021/05/02 09:50:01;;;;;;;;;;;19.00;53.50;;;;;;5057830;28;19951;-68
2021/05/02 09:52:46;;;;;;;;;;;19.00;53.80;;;;;;5043196;28;20683;-69
2021/05/02 09:55:20;;;;;;;;;;;19.00;54.60;;;;;;5041416;28;19928;-66
2021/05/02 09:57:56;;;;;;;;;;;18.90;55.00;;;;;;5050817;28;19916;-67
2021/05/02 10:00:25;;;;;;;;;;;18.90;55.30;;;;;;5045896;28;20493;-67
2021/05/02 10:02:50;;;;;;;;;;;18.90;56.30;;;;;;5064220;28;20030;-67
2021/05/02 10:05:16;;;;;;;;;;;18.90;55.90;;;;;;5018176;28;19936;-63
2021/05/02 10:07:41;;;;;;;;;;;18.90;56.00;;;;;;5047486;28;19916;-68
2021/05/02 10:10:07;;;;;;;;;;;18.90;56.10;;;;;;5045505;28;19927;-67
2021/05/02 10:12:33;;;;;;;;;;;18.90;56.30;;;;;;5035952;28;20349;-67
2021/05/02 10:14:59;;;;;;;;;;;18.90;56.30;;;;;;5046408;28;19921;-67
2021/05/02 10:17:24;;;;;;;;;;;18.90;56.30;;;;;;5046122;28;19922;-67
2021/05/02 10:19:50;;;;;;;;;;;19.00;56.30;;;;;;5041946;28;20415;-67
2021/05/02 10:22:18;;;;;;;;;;;19.00;56.20;;;;;;5044076;28;19925;-68
2021/05/02 10:24:44;;;;;;;;;;;19.00;56.00;;;;;;5045759;28;19916;-67
2021/05/02 10:27:10;;;;;;;;;;;18.90;55.80;;;;;;5063853;28;19916;-67
2021/05/02 10:29:38;;;;;;;;;;;19.00;55.80;;;;;;5045090;28;19931;-69
2021/05/02 10:32:05;;;;;;;;;;;19.00;55.90;;;;;;5064136;28;20610;-69
2021/05/02 10:34:34;;;;;;;;;;;19.00;55.90;;;;;;5054008;28;19931;-69
2021/05/02 10:37:18;;;;;;;;;;;19.00;55.90;;;;;;5062233;28;20049;-67
2021/05/02 10:39:56;;;;;;;;;;;19.00;56.00;;;;;;5063017;28;19917;-68
2021/05/02 10:42:37;;;;;;;;;;;19.00;55.90;;;;;;5063372;28;19917;-68
2021/05/02 10:45:21;;;;;;;;;;;19.00;55.70;;;;;;5062500;28;19917;-67
2021/05/02 10:47:47;;;;;;;;;;;19.00;55.20;;;;;;5063366;28;19995;-67
2021/05/02 10:50:25;;;;;;;;;;;19.00;55.60;;;;;;5063163;28;20575;-64
2021/05/02 10:53:09;;;;;;;;;;;19.10;55.40;;;;;;5060714;28;20019;-67
2021/05/02 10:55:55;;;;;;;;;;;19.10;55.40;;;;;;5052987;28;19924;-65
2021/05/02 10:58:22;;;;;;;;;;;19.10;55.20;;;;;;5041398;28;19917;-68
2021/05/02 11:00:52;;;;;;;;;;;19.10;54.90;;;;;;5043981;28;19925;-67
2021/05/02 11:03:39;;;;;;;;;;;19.10;54.80;;;;;;5040042;28;19966;-68
2021/05/02 11:06:05;;;;;;;;;;;19.10;54.60;;;;;;5040916;28;19921;-67
2021/05/02 11:08:45;;;;;;;;;;;19.10;54.60;;;;;;5040477;28;19982;-66
2021/05/02 11:11:33;;;;;;;;;;;19.10;54.40;;;;;;5043423;28;20577;-68
2021/05/02 11:14:11;;;;;;;;;;;19.10;54.30;;;;;;5036729;28;19927;-68
2021/05/02 11:16:40;;;;;;;;;;;19.20;54.20;;;;;;5037247;28;19924;-67
2021/05/02 11:19:06;;;;;;;;;;;19.20;54.00;;;;;;5043682;28;19920;-68
2021/05/02 11:21:50;;;;;;;;;;;19.20;54.00;;;;;;5043578;28;19917;-67
2021/05/02 11:24:16;;;;;;;;;;;19.20;53.80;;;;;;5042292;28;19920;-68
2021/05/02 11:26:58;;;;;;;;;;;19.20;53.80;;;;;;5043089;28;19917;-66
2021/05/02 11:29:24;;;;;;;;;;;19.20;53.70;;;;;;5040573;28;19981;-67
2021/05/02 11:31:50;;;;;;;;;;;19.20;53.50;;;;;;5041030;28;20585;-66
2021/05/02 11:34:15;;;;;;;;;;;19.20;53.40;;;;;;5033925;28;19925;-66
2021/05/02 11:36:41;;;;;;;;;;;19.20;53.40;;;;;;5058780;28;20507;-67
2021/05/02 11:39:07;;;;;;;;;;;19.30;53.30;;;;;;5036074;28;19924;-68
2021/05/02 11:41:51;;;;;;;;;;;19.30;53.30;;;;;;5050338;28;20448;-68
2021/05/02 11:44:16;;;;;;;;;;;19.30;53.20;;;;;;5057146;28;19916;-68
2021/05/02 11:46:42;;;;;;;;;;;19.30;53.10;;;;;;5044294;28;20690;-69
2021/05/02 11:49:07;;;;;;;;;;;19.30;53.00;;;;;;5031398;28;19947;-68
2021/05/02 11:51:34;;;;;;;;;;;19.30;52.90;;;;;;5039911;28;19925;-68
2021/05/02 11:53:59;;;;;;;;;;;19.30;52.90;;;;;;5050434;28;19927;-68
2021/05/02 11:56:32;;;;;;;;;;;19.30;52.90;;;;;;5061783;28;19917;-68
2021/05/02 11:59:07;;;;;;;;;;;19.30;53.40;;;;;;5057054;28;20839;-68
2021/05/02 12:01:33;;;;;;;;;;;19.30;54.50;;;;;;5033643;28;19916;-68
2021/05/02 12:04:05;;;;;;;;;;;19.40;54.70;;;;;;5035984;28;19999;-67
2021/05/02 12:06:31;;;;;;;;;;;19.40;54.90;;;;;;5065753;28;19948;-67
2021/05/02 12:08:57;;;;;;;;;;;19.40;54.70;;;;;;5066194;28;19916;-68
2021/05/02 12:11:23;;;;;;;;;;;19.40;54.70;;;;;;5043713;28;19932;-67
2021/05/02 12:13:50;;;;;;;;;;;19.40;54.60;;;;;;5066447;28;20746;-68
2021/05/02 12:16:16;;;;;;;;;;;19.30;54.60;;;;;;5063589;28;19927;-67
2021/05/02 12:18:48;;;;;;;;;;;19.40;54.80;;;;;;5064017;28;19925;-66
2021/05/02 12:21:14;;;;;;;;;;;19.30;54.70;;;;;;5064009;28;19917;-66
2021/05/02 12:23:39;;;;;;;;;;;19.20;55.20;;;;;;5063987;28;20280;-66
2021/05/02 12:26:08;;;;;;;;;;;19.20;55.80;;;;;;5062365;28;19925;-67
2021/05/02 12:28:34;;;;;;;;;;;19.20;56.20;;;;;;5062585;28;19920;-68
2021/05/02 12:30:59;;;;;;;;;;;19.10;56.40;;;;;;5045778;28;19921;-66
2021/05/02 12:33:25;;;;;;;;;;;19.10;56.60;;;;;;5045097;28;19927;-66
2021/05/02 12:35:50;;;;;;;;;;;19.10;56.80;;;;;;5062229;28;20412;-67
2021/05/02 12:38:25;;;;;;;;;;;19.00;56.60;;;;;;5057827;28;19936;-66
2021/05/02 12:40:51;;;;;;;;;;;19.10;56.80;;;;;;5061690;28;20013;-66
2021/05/02 12:43:23;;;;;;;;;;;19.10;57.00;;;;;;5062866;28;19936;-68
2021/05/02 12:45:48;;;;;;;;;;;19.10;57.20;;;;;;5062914;28;19947;-68
2021/05/02 12:48:22;;;;;;;;;;;19.10;57.20;;;;;;5062704;28;20536;-68
2021/05/02 12:50:48;;;;;;;;;;;19.10;56.80;;;;;;5063071;28;19923;-67
2021/05/02 12:53:13;;;;;;;;;;;19.10;57.00;;;;;;5063128;28;19928;-67
2021/05/02 12:55:39;;;;;;;;;;;19.10;56.90;;;;;;5044432;28;19944;-67
2021/05/02 12:58:04;;;;;;;;;;;19.10;57.10;;;;;;5044446;28;19932;-67
2021/05/02 13:00:41;;;;;;;;;;;19.10;57.30;;;;;;5063713;28;19917;-68
2021/05/02 13:03:40;;;;;;;;;;;19.10;57.60;;;;;;5060102;28;20423;-61
2021/05/02 13:06:10;;;;;;;;;;;19.20;57.10;;;;;;5051513;28;19921;-65
2021/05/02 13:08:35;;;;;;;;;;;19.20;57.50;;;;;;5062440;28;19939;-67
2021/05/02 13:11:24;;;;;;;;;;;19.10;57.10;;;;;;5044826;28;19920;-64
2021/05/02 13:14:08;;;;;;;;;;;19.20;57.20;;;;;;5048023;28;19917;-65
2021/05/02 13:17:00;;;;;;;;;;;19.20;56.80;;;;;;5064507;28;20414;-67
2021/05/02 13:19:32;;;;;;;;;;;19.20;56.70;;;;;;5061055;28;19916;-65
2021/05/02 13:22:13;;;;;;;;;;;19.20;56.40;;;;;;5064048;28;19920;-65
2021/05/02 13:24:52;;;;;;;;;;;19.20;56.70;;;;;;5059655;28;19956;-64
2021/05/02 13:27:36;;;;;;;;;;;19.20;56.60;;;;;;5056521;28;19913;-67
2021/05/02 13:30:03;;;;;;;;;;;19.20;56.20;;;;;;5062577;28;19919;-67
2021/05/02 13:32:28;;;;;;;;;;;19.20;56.00;;;;;;5061321;28;20012;-67
2021/05/02 13:34:53;;;;;;;;;;;19.30;56.10;;;;;;5063493;28;20020;-65
2021/05/02 13:37:19;;;;;;;;;;;19.30;56.10;;;;;;5064062;28;20567;-66
2021/05/02 13:39:44;;;;;;;;;;;19.30;56.00;;;;;;5065652;28;19913;-65
2021/05/02 13:42:11;;;;;;;;;;;19.30;55.60;;;;;;5067805;28;19912;-65
2021/05/02 13:44:37;;;;;;;;;;;19.30;55.30;;;;;;5067960;28;19920;-64
2021/05/02 13:47:02;;;;;;;;;;;19.30;55.20;;;;;;5050492;28;19912;-65
2021/05/02 13:49:28;;;;;;;;;;;19.30;55.00;;;;;;5068974;28;20519;-65
2021/05/02 13:51:53;;;;;;;;;;;19.30;54.90;;;;;;5069027;28;20004;-65
2021/05/02 13:54:19;;;;;;;;;;;19.30;54.80;;;;;;5048353;28;20051;-66
2021/05/02 13:56:46;;;;;;;;;;;19.40;54.50;;;;;;5064435;28;19920;-63
2021/05/02 13:59:11;;;;;;;;;;;19.40;54.60;;;;;;5064327;28;19920;-64
2021/05/02 14:01:36;;;;;;;;;;;19.40;54.40;;;;;;5063640;28;20365;-64
2021/05/02 14:04:03;;;;;;;;;;;19.40;54.40;;;;;;5064689;28;19920;-64
2021/05/02 14:06:29;;;;;;;;;;;19.40;53.90;;;;;;5064061;28;20003;-66
2021/05/02 14:08:54;;;;;;;;;;;19.40;53.80;;;;;;5063242;28;19932;-65
2021/05/02 14:11:20;;;;;;;;;;;19.40;53.80;;;;;;5063479;28;20620;-65
2021/05/02 14:13:46;;;;;;;;;;;19.40;53.60;;;;;;5062860;28;19920;-66
2021/05/02 14:16:11;;;;;;;;;;;19.40;53.50;;;;;;5045134;28;19919;-65
2021/05/02 14:18:37;;;;;;;;;;;19.40;53.40;;;;;;5046124;28;20333;-67